createdAt,value
2023-09-03T00:00:03.693Z,97231.31
2023-09-03T00:02:40.041Z,97226.22
2023-09-03T00:05:09.005Z,97230.28
2023-09-03T00:07:37.019Z,97222.41
2023-09-03T00:10:05.301Z,97228.63
2023-09-03T00:12:32.259Z,97223.28
2023-09-03T00:15:00.433Z,97223.28
2023-09-03T00:17:28.318Z,97234.09
2023-09-03T00:19:57.684Z,97223.03
2023-09-03T00:22:25.566Z,97225.69
2023-09-03T00:24:53.485Z,97221.59
2023-09-03T00:27:21.786Z,97222.75
2023-09-03T00:29:49.662Z,97221.91
2023-09-03T00:32:17.580Z,97226.69
2023-09-03T00:34:46.979Z,97225.03
2023-09-03T00:37:16.221Z,97223.75
2023-09-03T00:39:44.484Z,97220.50
2023-09-03T00:42:12.473Z,97221.53
2023-09-03T00:44:40.315Z,97225.84
2023-09-03T00:47:08.494Z,97225.03
2023-09-03T00:49:43.956Z,97233.31
2023-09-03T00:52:12.738Z,97234.31
2023-09-03T00:54:43.215Z,97232.63
2023-09-03T00:57:11.147Z,97234.88
2023-09-03T00:59:41.207Z,97234.22
2023-09-03T01:02:10.456Z,97234.47
2023-09-03T01:04:38.461Z,97233.50
2023-09-03T01:07:06.332Z,97237.56
2023-09-03T01:09:34.164Z,97228.72
2023-09-03T01:12:12.043Z,97234.03
2023-09-03T01:14:44.315Z,97233.25
2023-09-03T01:17:19.179Z,97236.66
2023-09-03T01:20:01.542Z,97241.69
2023-09-03T01:22:39.787Z,97242.00
2023-09-03T01:25:26.224Z,97247.34
2023-09-03T01:28:06.226Z,97247.47
2023-09-03T01:30:36.248Z,97244.66
2023-09-03T01:33:06.934Z,97248.16
2023-09-03T01:35:35.702Z,97258.53
2023-09-03T01:38:03.568Z,97255.34
2023-09-03T01:40:31.893Z,97259.84
2023-09-03T01:42:59.874Z,97259.44
2023-09-03T01:45:36.265Z,97265.19
2023-09-03T01:48:16.632Z,97261.25
2023-09-03T01:50:48.597Z,97267.72
2023-09-03T01:53:24.090Z,97264.22
2023-09-03T01:55:58.480Z,97274.19
2023-09-03T01:58:32.217Z,97270.81
2023-09-03T02:01:03.553Z,97270.09
2023-09-03T02:03:33.457Z,97271.66
2023-09-03T02:06:01.382Z,97280.78
2023-09-03T02:08:29.216Z,97286.81
2023-09-03T02:10:57.228Z,97278.94
2023-09-03T02:13:26.169Z,97275.44
2023-09-03T02:15:54.022Z,97280.78
2023-09-03T02:18:22.042Z,97279.78
2023-09-03T02:20:52.023Z,97284.28
2023-09-03T02:23:19.993Z,97281.78
2023-09-03T02:25:47.851Z,97281.47
2023-09-03T02:28:15.758Z,97285.41
2023-09-03T02:30:43.651Z,97285.84
2023-09-03T02:33:13.115Z,97286.25
2023-09-03T02:35:40.973Z,97282.06
2023-09-03T02:38:10.208Z,97288.22
2023-09-03T02:40:38.236Z,97282.91
2023-09-03T02:43:06.281Z,97291.63
2023-09-03T02:45:34.169Z,97294.28
2023-09-03T02:48:02.006Z,97302.28
2023-09-03T02:50:30.135Z,97299.22
2023-09-03T02:52:58.353Z,97290.38
2023-09-03T02:55:27.684Z,97294.00
2023-09-03T02:57:55.593Z,97302.44
2023-09-03T03:00:24.374Z,97299.63
2023-09-03T03:02:53.356Z,97302.44
2023-09-03T03:05:21.271Z,97306.50
2023-09-03T03:07:49.120Z,97312.84
2023-09-03T03:10:16.989Z,97307.22
2023-09-03T03:12:47.526Z,97306.09
2023-09-03T03:15:18.032Z,97303.84
2023-09-03T03:17:46.117Z,97304.13
2023-09-03T03:20:14.983Z,97299.22
2023-09-03T03:22:42.911Z,97296.69
2023-09-03T03:25:11.747Z,97301.72
2023-09-03T03:27:39.764Z,97298.19
2023-09-03T03:30:10.775Z,97299.06
2023-09-03T03:32:39.555Z,97295.34
2023-09-03T03:35:08.251Z,97305.75
2023-09-03T03:37:36.133Z,97311.94
2023-09-03T03:40:07.220Z,97311.78
2023-09-03T03:42:35.180Z,97325.97
2023-09-03T03:45:03.968Z,97327.34
2023-09-03T03:47:34.453Z,97332.41
2023-09-03T03:50:02.376Z,97329.28
2023-09-03T03:52:30.274Z,97331.13
2023-09-03T03:54:58.274Z,97323.41
2023-09-03T03:57:26.114Z,97334.19
2023-09-03T03:59:54.346Z,97329.72
2023-09-03T04:02:22.167Z,97331.69
2023-09-03T04:04:54.497Z,97331.69
2023-09-03T04:07:22.426Z,97330.81
2023-09-03T04:09:50.334Z,97334.47
2023-09-03T04:12:18.209Z,97329.28
2023-09-03T04:14:47.566Z,97326.19
2023-09-03T04:17:15.404Z,97329.28
2023-09-03T04:19:48.153Z,97338.13
2023-09-03T04:22:17.698Z,97339.69
2023-09-03T04:24:45.729Z,97334.59
2023-09-03T04:27:14.527Z,97337.28
2023-09-03T04:29:42.552Z,97341.63
2023-09-03T04:32:10.665Z,97343.19
2023-09-03T04:34:38.565Z,97348.63
2023-09-03T04:37:06.477Z,97346.38
2023-09-03T04:39:36.713Z,97351.59
2023-09-03T04:42:05.811Z,97346.38
2023-09-03T04:44:33.820Z,97351.16
2023-09-03T04:47:01.776Z,97360.69
2023-09-03T04:49:31.181Z,97365.31
2023-09-03T04:51:59.129Z,97367.13
2023-09-03T04:54:27.631Z,97372.47
2023-09-03T04:56:57.056Z,97373.31
2023-09-03T04:59:24.967Z,97375.13
2023-09-03T05:01:53.212Z,97370.53
2023-09-03T05:04:21.124Z,97375.69
2023-09-03T05:06:50.203Z,97374.16
2023-09-03T05:09:21.072Z,97377.66
2023-09-03T05:11:48.952Z,97383.84
2023-09-03T05:14:19.859Z,97382.97
2023-09-03T05:16:47.968Z,97379.47
2023-09-03T05:19:16.705Z,97392.53
2023-09-03T05:21:44.704Z,97391.28
2023-09-03T05:24:12.886Z,97379.78
2023-09-03T05:26:41.020Z,97386.66
2023-09-03T05:29:09.207Z,97388.38
2023-09-03T05:31:39.096Z,97386.56
2023-09-03T05:34:07.065Z,97390.78
2023-09-03T05:36:35.036Z,97394.72
2023-09-03T05:39:03.576Z,97406.09
2023-09-03T05:41:32.588Z,97410.06
2023-09-03T05:44:07.089Z,97412.84
2023-09-03T05:46:35.621Z,97418.91
2023-09-03T05:49:05.121Z,97416.38
2023-09-03T05:51:33.329Z,97421.28
2023-09-03T05:54:01.247Z,97412.59
2023-09-03T05:56:29.143Z,97418.50
2023-09-03T05:59:03.585Z,97415.84
2023-09-03T06:01:31.693Z,97411.94
2023-09-03T06:04:02.982Z,97402.94
2023-09-03T06:06:37.184Z,97397.31
2023-09-03T06:09:06.464Z,97404.91
2023-09-03T06:11:34.356Z,97407.31
2023-09-03T06:14:02.502Z,97409.13
2023-09-03T06:16:30.739Z,97413.09
2023-09-03T06:18:58.582Z,97410.00
2023-09-03T06:21:27.978Z,97413.66
2023-09-03T06:23:57.255Z,97418.72
2023-09-03T06:26:25.244Z,97420.38
2023-09-03T06:28:53.222Z,97418.16
2023-09-03T06:31:21.072Z,97423.22
2023-09-03T06:33:48.928Z,97430.50
2023-09-03T06:36:17.772Z,97436.41
2023-09-03T06:38:45.807Z,97436.00
2023-09-03T06:41:15.163Z,97445.97
2023-09-03T06:43:43.082Z,97448.94
2023-09-03T06:46:11.070Z,97457.91
2023-09-03T06:48:38.919Z,97456.25
2023-09-03T06:51:07.022Z,97459.63
2023-09-03T06:53:34.878Z,97462.69
2023-09-03T06:56:02.953Z,97460.31
2023-09-03T06:58:32.540Z,97465.94
2023-09-03T07:01:01.085Z,97458.44
2023-09-03T07:03:30.058Z,97466.75
2023-09-03T07:05:58.101Z,97466.88
2023-09-03T07:08:26.242Z,97484.59
2023-09-03T07:11:00.581Z,97487.13
2023-09-03T07:13:28.999Z,97497.91
2023-09-03T07:15:58.342Z,97487.94
2023-09-03T07:18:26.595Z,97491.00
2023-09-03T07:21:05.103Z,97493.13
2023-09-03T07:23:33.721Z,97487.31
2023-09-03T07:26:07.267Z,97485.16
2023-09-03T07:28:35.816Z,97489.09
2023-09-03T07:31:05.514Z,97492.03
2023-09-03T07:33:34.577Z,97492.16
2023-09-03T07:36:02.544Z,97493.69
2023-09-03T07:38:31.781Z,97503.25
2023-09-03T07:40:59.838Z,97496.31
2023-09-03T07:43:27.857Z,97497.25
2023-09-03T07:45:55.981Z,97497.13
2023-09-03T07:48:25.342Z,97505.66
2023-09-03T07:50:54.083Z,97510.00
2023-09-03T07:53:22.453Z,97516.44
2023-09-03T07:55:50.880Z,97512.28
2023-09-03T07:58:19.015Z,97520.56
2023-09-03T08:00:47.367Z,97515.78
2023-09-03T08:03:15.604Z,97523.34
2023-09-03T08:05:44.995Z,97523.44
2023-09-03T08:08:13.130Z,97518.44
2023-09-03T08:10:41.253Z,97526.59
2023-09-03T08:13:09.555Z,97527.66
2023-09-03T08:15:44.562Z,97530.97
2023-09-03T08:18:13.358Z,97516.81
2023-09-03T08:20:42.465Z,97529.66
2023-09-03T08:23:13.884Z,97528.41
2023-09-03T08:25:42.934Z,97526.63
2023-09-03T08:28:12.161Z,97525.84
2023-09-03T08:30:40.417Z,97541.00
2023-09-03T08:33:08.581Z,97542.25
2023-09-03T08:35:38.281Z,97534.97
2023-09-03T08:38:06.622Z,97539.50
2023-09-03T08:40:37.741Z,97532.00
2023-09-03T08:43:08.321Z,97532.94
2023-09-03T08:45:49.841Z,97534.50
2023-09-03T08:48:18.950Z,97533.22
2023-09-03T08:50:47.110Z,97538.44
2023-09-03T08:53:16.907Z,97534.09
2023-09-03T08:55:46.438Z,97532.59
2023-09-03T08:58:16.607Z,97528.56
2023-09-03T09:00:44.967Z,97536.81
2023-09-03T09:03:15.381Z,97533.19
2023-09-03T09:05:45.159Z,97534.41
2023-09-03T09:08:15.566Z,97542.97
2023-09-03T09:10:48.425Z,97549.53
2023-09-03T09:13:22.807Z,97556.09
2023-09-03T09:15:51.538Z,97556.97
2023-09-03T09:18:20.080Z,97553.75
2023-09-03T09:20:49.077Z,97553.94
2023-09-03T09:23:23.162Z,97559.47
2023-09-03T09:25:52.564Z,97560.88
2023-09-03T09:28:23.001Z,97555.13
2023-09-03T09:30:56.391Z,97561.34
2023-09-03T09:33:25.229Z,97565.16
2023-09-03T09:35:55.036Z,97564.84
2023-09-03T09:38:36.911Z,97576.09
2023-09-03T09:41:22.568Z,97563.81
2023-09-03T09:43:52.464Z,97568.69
2023-09-03T09:46:28.046Z,97561.94
2023-09-03T09:48:57.404Z,97573.38
2023-09-03T09:51:25.768Z,97570.84
2023-09-03T09:53:57.914Z,97573.53
2023-09-03T09:56:30.302Z,97571.69
2023-09-03T09:59:00.486Z,97577.59
2023-09-03T10:01:42.928Z,97577.06
2023-09-03T10:04:11.359Z,97581.97
2023-09-03T10:06:48.086Z,97579.59
2023-09-03T10:09:16.206Z,97574.88
2023-09-03T10:11:44.214Z,97567.81
2023-09-03T10:14:13.542Z,97569.44
2023-09-03T10:16:41.720Z,97577.53
2023-09-03T10:19:16.286Z,97569.75
2023-09-03T10:21:53.163Z,97569.75
2023-09-03T10:24:23.276Z,97575.13
2023-09-03T10:26:55.833Z,97569.72
2023-09-03T10:29:29.863Z,97563.00
2023-09-03T10:32:01.152Z,97565.19
2023-09-03T10:34:31.294Z,97563.50
2023-09-03T10:37:11.423Z,97569.72
2023-09-03T10:39:41.842Z,97566.22
2023-09-03T10:42:30.282Z,97566.88
2023-09-03T10:45:01.786Z,97560.44
2023-09-03T10:47:30.907Z,97556.56
2023-09-03T10:49:58.880Z,97559.34
2023-09-03T10:52:36.313Z,97556.84
2023-09-03T10:55:19.415Z,97562.94
2023-09-03T10:57:48.516Z,97550.25
2023-09-03T11:00:22.084Z,97551.22
2023-09-03T11:02:51.499Z,97554.72
2023-09-03T11:05:25.675Z,97560.41
2023-09-03T11:08:30.649Z,97556.69
2023-09-03T11:10:59.321Z,97554.28
2023-09-03T11:13:38.263Z,97554.81
2023-09-03T11:16:08.291Z,97559.16
2023-09-03T11:18:36.599Z,97557.13
2023-09-03T11:21:04.694Z,97556.00
2023-09-03T11:23:36.689Z,97542.34
2023-09-03T11:26:07.124Z,97545.25
2023-09-03T11:28:38.603Z,97545.88
2023-09-03T11:31:08.398Z,97540.19
2023-09-03T11:33:36.468Z,97539.50
2023-09-03T11:36:04.749Z,97533.47
2023-09-03T11:38:34.609Z,97538.00
2023-09-03T11:41:04.062Z,97545.25
2023-09-03T11:43:37.072Z,97537.69
2023-09-03T11:46:14.532Z,97549.47
2023-09-03T11:48:43.492Z,97547.31
2023-09-03T11:51:12.141Z,97541.06
2023-09-03T11:53:43.679Z,97545.41
2023-09-03T11:56:17.615Z,97544.69
2023-09-03T11:58:47.182Z,97547.75
2023-09-03T12:01:18.513Z,97545.00
2023-09-03T12:03:46.982Z,97545.53
2023-09-03T12:06:15.964Z,97564.97
2023-09-03T12:08:44.372Z,97547.19
2023-09-03T12:11:13.115Z,97557.28
2023-09-03T12:13:42.273Z,97549.00
2023-09-03T12:16:12.670Z,97553.66
2023-09-03T12:18:56.385Z,97547.81
2023-09-03T12:21:33.831Z,97556.91
2023-09-03T12:24:04.857Z,97547.34
2023-09-03T12:26:34.007Z,97549.59
2023-09-03T12:29:02.598Z,97555.16
2023-09-03T12:31:41.532Z,97555.72
2023-09-03T12:34:11.325Z,97555.91
2023-09-03T12:36:55.225Z,97564.97
2023-09-03T12:39:30.551Z,97553.50
2023-09-03T12:41:58.828Z,97557.53
2023-09-03T12:44:28.670Z,97554.38
2023-09-03T12:46:56.938Z,97551.88
2023-09-03T12:49:27.653Z,97551.97
2023-09-03T12:51:56.844Z,97550.22
2023-09-03T12:54:24.888Z,97552.06
2023-09-03T12:56:54.856Z,97543.78
2023-09-03T12:59:23.429Z,97552.44
2023-09-03T13:01:51.627Z,97555.31
2023-09-03T13:04:19.827Z,97551.13
2023-09-03T13:06:49.419Z,97551.78
2023-09-03T13:09:17.565Z,97559.03
2023-09-03T13:11:45.590Z,97554.19
2023-09-03T13:14:13.579Z,97557.44
2023-09-03T13:16:41.674Z,97558.22
2023-09-03T13:19:09.625Z,97559.63
2023-09-03T13:21:38.633Z,97559.06
2023-09-03T13:24:08.549Z,97552.00
2023-09-03T13:26:37.424Z,97552.38
2023-09-03T13:29:05.751Z,97554.69
2023-09-03T13:31:33.900Z,97550.97
2023-09-03T13:34:02.046Z,97559.34
2023-09-03T13:36:30.449Z,97552.41
2023-09-03T13:38:58.477Z,97557.53
2023-09-03T13:41:28.398Z,97556.44
2023-09-03T13:43:56.839Z,97560.56
2023-09-03T13:46:25.109Z,97557.34
2023-09-03T13:48:53.248Z,97559.88
2023-09-03T13:51:21.799Z,97551.94
2023-09-03T13:53:54.519Z,97557.34
2023-09-03T13:56:22.564Z,97548.69
2023-09-03T13:58:51.894Z,97552.22
2023-09-03T14:01:22.313Z,97544.88
2023-09-03T14:03:51.260Z,97546.03
2023-09-03T14:06:20.792Z,97546.03
2023-09-03T14:08:48.950Z,97545.56
2023-09-03T14:11:17.534Z,97549.75
2023-09-03T14:13:48.261Z,97552.66
2023-09-03T14:16:17.936Z,97550.28
2023-09-03T14:18:46.465Z,97543.81
2023-09-03T14:21:14.597Z,97549.06
2023-09-03T14:23:42.562Z,97545.84
2023-09-03T14:26:14.894Z,97551.09
2023-09-03T14:28:42.877Z,97540.66
2023-09-03T14:31:10.940Z,97536.75
2023-09-03T14:33:40.372Z,97530.31
2023-09-03T14:39:04.394Z,97536.59
2023-09-03T14:41:32.474Z,97525.81
2023-09-03T14:44:00.633Z,97525.28
2023-09-03T14:46:28.674Z,97525.97
2023-09-03T14:49:22.353Z,97527.22
2023-09-03T14:51:55.480Z,97529.13
2023-09-03T14:55:05.252Z,97530.59
2023-09-03T14:57:54.277Z,97524.22
2023-09-03T15:00:48.968Z,97531.63
2023-09-03T15:17:16.073Z,97522.16
2023-09-03T15:19:46.604Z,97519.53
2023-09-03T15:22:14.751Z,97526.63
2023-09-03T15:24:42.763Z,97528.66
2023-09-03T15:27:10.856Z,97529.13
2023-09-03T15:29:38.900Z,97521.66
2023-09-03T15:32:07.501Z,97532.34
2023-09-03T15:34:41.021Z,97529.75
2023-09-03T15:37:09.072Z,97535.78
2023-09-03T15:39:37.119Z,97535.69
2023-09-03T15:42:05.971Z,97532.03
2023-09-03T15:44:33.980Z,97533.63
2023-09-03T15:47:02.010Z,97540.31
2023-09-03T15:49:30.054Z,97533.91
2023-09-03T15:51:59.376Z,97537.28
2023-09-03T15:54:30.135Z,97537.44
2023-09-03T15:56:58.262Z,97537.50
2023-09-03T15:59:27.266Z,97533.31
2023-09-03T16:01:55.530Z,97534.72
2023-09-03T16:04:23.857Z,97535.94
2023-09-03T16:06:51.854Z,97536.75
2023-09-03T16:09:21.499Z,97531.16
2023-09-03T16:11:49.626Z,97532.69
2023-09-03T16:14:17.651Z,97524.09
2023-09-03T16:16:45.663Z,97531.72
2023-09-03T16:19:13.633Z,97539.81
2023-09-03T16:21:41.719Z,97543.38
2023-09-03T16:24:09.787Z,97545.03
2023-09-03T16:26:39.180Z,97541.00
2023-09-03T16:29:10.123Z,97538.13
2023-09-03T16:31:38.281Z,97535.53
2023-09-03T16:34:07.921Z,97549.19
2023-09-03T16:36:37.140Z,97548.69
2023-09-03T16:39:06.122Z,97550.19
2023-09-03T16:41:36.508Z,97547.03
2023-09-03T16:44:06.437Z,97545.72
2023-09-03T16:46:34.504Z,97545.72
2023-09-03T16:49:02.565Z,97543.38
2023-09-03T16:51:31.509Z,97539.66
2023-09-03T16:53:59.473Z,97543.25
2023-09-03T16:56:27.473Z,97543.78
2023-09-03T16:58:55.576Z,97541.22
2023-09-03T17:01:25.343Z,97533.50
2023-09-03T17:03:55.423Z,97533.03
2023-09-03T17:06:23.690Z,97541.66
2023-09-03T17:08:52.120Z,97536.28
2023-09-03T17:11:20.159Z,97537.16
2023-09-03T17:13:48.222Z,97539.38
2023-09-03T17:16:16.677Z,97543.94
2023-09-03T17:18:46.373Z,97536.19
2023-09-03T17:21:15.060Z,97532.19
2023-09-03T17:23:43.065Z,97531.69
2023-09-03T17:26:24.932Z,97537.25
2023-09-03T17:28:58.745Z,97538.66
2023-09-03T17:31:30.938Z,97536.28
2023-09-03T17:34:01.324Z,97541.38
2023-09-03T17:36:29.926Z,97541.56
2023-09-03T17:38:58.403Z,97546.97
2023-09-03T17:41:26.682Z,97539.13
2023-09-03T17:43:56.851Z,97536.13
2023-09-03T17:46:25.081Z,97538.13
2023-09-03T17:48:53.285Z,97539.97
2023-09-03T17:51:22.996Z,97539.16
2023-09-03T17:53:51.478Z,97536.47
2023-09-03T17:56:19.660Z,97534.13
2023-09-03T17:58:52.260Z,97534.69
2023-09-03T18:01:20.806Z,97535.72
2023-09-03T18:03:49.275Z,97540.78
2023-09-03T18:06:17.443Z,97548.22
2023-09-03T18:08:47.115Z,97549.22
2023-09-03T18:11:17.015Z,97542.69
2023-09-03T18:15:13.486Z,97543.34
2023-09-03T18:18:05.301Z,97554.44
2023-09-03T18:20:33.604Z,97555.47
2023-09-03T18:23:01.770Z,97558.13
2023-09-03T18:25:31.660Z,97551.38
2023-09-03T18:27:59.967Z,97558.44
2023-09-03T18:30:29.246Z,97548.03
2023-09-03T18:33:00.631Z,97562.28
2023-09-03T18:35:28.942Z,97558.59
2023-09-03T18:37:59.549Z,97557.06
2023-09-03T18:40:45.214Z,97561.09
2023-09-03T18:43:16.839Z,97561.75
2023-09-03T18:45:45.152Z,97561.72
2023-09-03T18:48:21.210Z,97560.84
2023-09-03T18:50:56.047Z,97570.44
2023-09-03T18:53:32.462Z,97569.41
2023-09-03T18:56:05.528Z,97567.34
2023-09-03T18:58:35.688Z,97565.97
2023-09-03T19:01:07.800Z,97578.91
2023-09-03T19:03:36.421Z,97574.31
2023-09-03T19:06:07.529Z,97573.97
2023-09-03T19:08:35.951Z,97581.34
2023-09-03T19:11:04.216Z,97585.03
2023-09-03T19:13:32.355Z,97583.66
2023-09-03T19:16:02.511Z,97592.00
2023-09-03T19:18:35.186Z,97582.13
2023-09-03T19:21:03.487Z,97581.09
2023-09-03T19:23:32.406Z,97577.16
2023-09-03T19:26:00.514Z,97587.53
2023-09-03T19:28:31.097Z,97585.88
2023-09-03T19:30:59.788Z,97589.88
2023-09-03T19:33:29.357Z,97594.88
2023-09-03T19:35:58.585Z,97587.56
2023-09-03T19:38:27.940Z,97576.31
2023-09-03T19:40:56.226Z,97579.13
2023-09-03T19:43:24.780Z,97578.31
2023-09-03T19:45:54.829Z,97577.94
2023-09-03T19:48:24.564Z,97587.44
2023-09-03T19:50:55.230Z,97579.56
2023-09-03T19:53:23.586Z,97581.19
2023-09-03T19:55:51.657Z,97579.13
2023-09-03T19:58:20.837Z,97582.13
2023-09-03T20:00:50.576Z,97585.63
2023-09-03T20:03:18.719Z,97584.25
2023-09-03T20:05:56.579Z,97584.56
2023-09-03T20:08:26.165Z,97584.03
2023-09-03T20:10:55.604Z,97580.97
2023-09-03T20:13:23.617Z,97582.94
2023-09-03T20:15:58.368Z,97583.41
2023-09-03T20:18:26.996Z,97585.56
2023-09-03T20:20:55.354Z,97578.81
2023-09-03T20:23:25.640Z,97581.69
2023-09-03T20:26:01.346Z,97581.06
2023-09-03T20:28:45.277Z,97579.22
2023-09-03T20:31:14.958Z,97581.22
2023-09-03T20:33:43.319Z,97590.53
2023-09-03T20:36:11.583Z,97581.38
2023-09-03T20:38:41.527Z,97584.06
2023-09-03T20:41:10.386Z,97588.59
2023-09-03T20:43:38.660Z,97580.56
2023-09-03T20:46:06.952Z,97577.88
2023-09-03T20:48:35.004Z,97572.50
2023-09-03T20:51:04.075Z,97568.31
2023-09-03T20:53:32.892Z,97572.59
2023-09-03T20:56:02.488Z,97570.94
2023-09-03T20:58:30.560Z,97571.84
2023-09-03T21:00:58.812Z,97566.78
2023-09-03T21:03:27.709Z,97566.41
2023-09-03T21:05:56.779Z,97569.91
2023-09-03T21:08:26.373Z,97570.50
2023-09-03T21:10:57.984Z,97568.00
2023-09-03T21:13:28.773Z,97571.97
2023-09-03T21:15:58.073Z,97565.91
2023-09-03T21:18:28.020Z,97559.00
2023-09-03T21:21:01.625Z,97564.13
2023-09-03T21:23:30.913Z,97563.72
2023-09-03T21:25:59.048Z,97569.25
2023-09-03T21:28:28.636Z,97555.16
2023-09-03T21:30:56.812Z,97559.81
2023-09-03T21:33:24.823Z,97560.81
2023-09-03T21:35:52.802Z,97552.94
2023-09-03T21:38:21.313Z,97553.94
2023-09-03T21:40:49.837Z,97542.00
2023-09-03T21:43:18.048Z,97545.66
2023-09-03T21:45:47.480Z,97547.59
2023-09-03T21:48:15.494Z,97555.09
2023-09-03T21:50:43.516Z,97555.66
2023-09-03T21:53:11.561Z,97555.13
2023-09-03T21:55:40.064Z,97553.31
2023-09-03T21:58:08.181Z,97555.13
2023-09-03T22:00:36.217Z,97557.25
2023-09-03T22:03:05.872Z,97555.59
2023-09-03T22:05:36.392Z,97554.00
2023-09-03T22:08:05.705Z,97554.44
2023-09-03T22:10:33.778Z,97554.03
2023-09-03T22:13:03.678Z,97555.34
2023-09-03T22:15:32.160Z,97556.59
2023-09-03T22:18:00.254Z,97556.72
2023-09-03T22:20:29.699Z,97558.56
2023-09-03T22:22:57.781Z,97558.28
2023-09-03T22:25:25.872Z,97566.31
2023-09-03T22:27:54.419Z,97566.31
2023-09-03T22:30:22.491Z,97562.38
2023-09-03T22:32:50.500Z,97561.41
2023-09-03T22:35:18.688Z,97559.72
2023-09-03T22:37:48.684Z,97561.09
2023-09-03T22:40:17.078Z,97561.53
2023-09-03T22:42:45.205Z,97570.97
2023-09-03T22:45:13.702Z,97569.44
2023-09-03T22:47:42.351Z,97571.09
2023-09-03T22:50:11.143Z,97571.69
2023-09-03T22:52:39.139Z,97568.13
2023-09-03T22:55:09.234Z,97563.34
2023-09-03T22:57:37.345Z,97566.97
2023-09-03T23:00:07.145Z,97568.25
2023-09-03T23:02:35.245Z,97567.56
2023-09-03T23:05:03.712Z,97579.78
2023-09-03T23:07:32.040Z,97585.38
2023-09-03T23:10:02.331Z,97575.56
2023-09-03T23:12:31.831Z,97578.66
2023-09-03T23:15:01.069Z,97585.13
2023-09-03T23:17:30.012Z,97591.59
2023-09-03T23:19:59.688Z,97589.44
2023-09-03T23:22:29.396Z,97588.44
2023-09-03T23:24:57.752Z,97584.53
2023-09-03T23:27:25.833Z,97589.03
2023-09-03T23:29:55.235Z,97582.84
2023-09-03T23:32:23.780Z,97588.84
2023-09-03T23:34:51.982Z,97579.44
2023-09-03T23:37:20.258Z,97582.94
2023-09-03T23:39:48.462Z,97579.16
2023-09-03T23:42:16.502Z,97577.19
2023-09-03T23:44:44.692Z,97570.97
2023-09-03T23:47:16.161Z,97566.75
2023-09-03T23:49:45.819Z,97565.91
2023-09-03T23:52:14.051Z,97559.44
2023-09-03T23:54:42.124Z,97563.66
2023-09-03T23:57:10.217Z,97564.50
2023-09-03T23:59:38.200Z,97563.38
